Sappa, Nebraska
Current Conditions -  °F | °C
As of 1:15 PM on Saturday 20 Dec 2014 (Local Time) from KHDE Reporting Station
Clear Clear  
Wind Chill: 34°   Ceiling: Unl
Heat Index: 38°   Visibility: 10mi
Dew Point: 30°   Wind: 6mph
Humidity: 73%   Direction: 230°SW
Pressure: 29.98"   Gusts: NA
Location:  40.0893°N, 99.5735°W
Report Text: KHDE 201915Z AUTO 23005KT 10SM CLR 04/M01 A2998 RMK AO2 T00351009
Loading
Personal Weather Stations






























Interactive Weather Map New forecast layout! Learn more

10-Day Weather Forecast

Advertisements
Track Severe Weather on mobile